createdAt,value
2023-01-09T00:00:53.083Z,6.30
2023-01-09T00:03:19.962Z,6.40
2023-01-09T00:05:46.903Z,6.40
2023-01-09T00:08:13.833Z,6.50
2023-01-09T00:10:40.707Z,6.60
2023-01-09T00:13:07.526Z,6.60
2023-01-09T00:15:34.514Z,6.60
2023-01-09T00:18:01.345Z,6.60
2023-01-09T00:20:29.564Z,6.70
2023-01-09T00:22:56.437Z,6.70
2023-01-09T00:25:23.400Z,6.70
2023-01-09T00:27:50.368Z,6.70
2023-01-09T00:30:17.257Z,6.70
2023-01-09T00:32:44.134Z,6.70
2023-01-09T00:35:14.062Z,6.60
2023-01-09T00:37:40.936Z,6.60
2023-01-09T00:40:07.958Z,6.60
2023-01-09T00:42:36.725Z,6.60
2023-01-09T00:45:08.063Z,6.60
2023-01-09T00:47:40.567Z,6.60
2023-01-09T00:50:10.706Z,6.60
2023-01-09T00:52:38.677Z,6.60
2023-01-09T00:55:06.012Z,6.70
2023-01-09T00:57:33.498Z,6.70
2023-01-09T01:00:00.386Z,6.70
2023-01-09T01:02:27.440Z,6.70
2023-01-09T01:05:12.733Z,6.70
2023-01-09T01:07:39.605Z,6.70
2023-01-09T01:10:08.018Z,6.70
2023-01-09T01:12:34.937Z,6.70
2023-01-09T01:15:02.168Z,6.70
2023-01-09T01:17:29.039Z,6.60
2023-01-09T01:19:56.733Z,6.60
2023-01-09T01:22:23.622Z,6.60
2023-01-09T01:24:50.615Z,6.70
2023-01-09T01:27:17.736Z,6.70
2023-01-09T01:29:44.808Z,6.70
2023-01-09T01:32:11.904Z,6.70
2023-01-09T01:34:38.897Z,6.70
2023-01-09T01:37:05.994Z,6.70
2023-01-09T01:39:33.117Z,6.70
2023-01-09T01:42:00.068Z,6.70
2023-01-09T01:44:45.845Z,6.70
2023-01-09T01:47:13.589Z,6.60
2023-01-09T01:49:40.646Z,6.60
2023-01-09T01:52:07.593Z,6.50
2023-01-09T01:54:34.590Z,6.50
2023-01-09T01:57:03.603Z,6.50
2023-01-09T01:59:50.430Z,6.50
2023-01-09T02:02:19.302Z,6.50
2023-01-09T02:04:46.760Z,6.50
2023-01-09T02:07:13.657Z,6.50
2023-01-09T02:09:41.519Z,6.60
2023-01-09T02:12:25.473Z,6.60
2023-01-09T02:14:55.430Z,6.60
2023-01-09T02:17:34.412Z,6.50
2023-01-09T02:20:16.579Z,6.50
2023-01-09T02:22:43.800Z,6.50
2023-01-09T02:25:19.517Z,6.50
2023-01-09T02:28:12.567Z,6.50
2023-01-09T02:30:39.400Z,6.50
2023-01-09T02:33:25.201Z,6.60
2023-01-09T02:36:10.585Z,6.60
2023-01-09T02:38:37.438Z,6.50
2023-01-09T02:41:04.257Z,6.50
2023-01-09T02:43:32.014Z,6.50
2023-01-09T02:45:58.849Z,6.40
2023-01-09T02:48:25.770Z,6.40
2023-01-09T02:51:01.631Z,6.40
2023-01-09T02:53:40.886Z,6.30
2023-01-09T02:56:10.864Z,6.30
2023-01-09T02:58:53.090Z,6.40
2023-01-09T03:01:20.079Z,6.40
2023-01-09T03:03:50.163Z,6.40
2023-01-09T03:06:31.283Z,6.40
2023-01-09T03:09:01.385Z,6.40
2023-01-09T03:11:30.785Z,6.50
2023-01-09T03:14:00.967Z,6.50
2023-01-09T03:16:30.380Z,6.50
2023-01-09T03:18:58.559Z,6.50
2023-01-09T03:21:26.194Z,6.60
2023-01-09T03:23:57.059Z,6.60
2023-01-09T03:26:24.504Z,6.60
2023-01-09T03:28:51.953Z,6.60
2023-01-09T03:31:19.047Z,6.60
2023-01-09T03:33:46.093Z,6.50
2023-01-09T03:36:13.869Z,6.50
2023-01-09T03:38:40.863Z,6.50
2023-01-09T03:41:08.030Z,6.50
2023-01-09T03:43:35.554Z,6.50
2023-01-09T03:46:03.107Z,6.60
2023-01-09T03:48:30.079Z,6.60
2023-01-09T03:50:57.081Z,6.50
2023-01-09T03:53:25.490Z,6.60
2023-01-09T03:55:53.381Z,6.60
2023-01-09T03:58:20.651Z,6.60
2023-01-09T04:00:49.246Z,6.60
2023-01-09T04:03:17.699Z,6.60
2023-01-09T04:05:45.348Z,6.60
2023-01-09T04:08:12.233Z,6.60
2023-01-09T04:10:39.122Z,6.60
2023-01-09T04:13:06.357Z,6.70
2023-01-09T04:15:33.303Z,6.70
2023-01-09T04:18:00.302Z,6.70
2023-01-09T04:20:27.366Z,6.70
2023-01-09T04:22:54.219Z,6.70
2023-01-09T04:25:22.858Z,6.70
2023-01-09T04:27:49.727Z,6.70
2023-01-09T04:30:16.704Z,6.70
2023-01-09T04:32:43.742Z,6.80
2023-01-09T04:35:10.659Z,6.80
2023-01-09T04:37:37.541Z,6.80
2023-01-09T04:40:10.910Z,6.80
2023-01-09T04:42:38.242Z,6.80
2023-01-09T04:45:05.873Z,6.80
2023-01-09T04:47:32.836Z,6.70
2023-01-09T04:50:00.368Z,6.80
2023-01-09T04:52:27.374Z,6.80
2023-01-09T04:54:54.263Z,6.70
2023-01-09T04:57:21.237Z,6.70
2023-01-09T04:59:48.086Z,6.70
2023-01-09T05:02:15.033Z,6.70
2023-01-09T05:04:41.975Z,6.70
2023-01-09T05:07:08.984Z,6.70
2023-01-09T05:09:36.353Z,6.70
2023-01-09T05:12:03.378Z,6.70
2023-01-09T05:14:30.276Z,6.70
2023-01-09T05:16:57.134Z,6.80
2023-01-09T05:19:25.566Z,6.80
2023-01-09T05:21:52.502Z,6.80
2023-01-09T05:24:19.458Z,6.80
2023-01-09T05:26:46.399Z,6.80
2023-01-09T05:29:13.370Z,6.80
2023-01-09T05:31:40.304Z,6.80
2023-01-09T05:34:07.279Z,6.80
2023-01-09T05:36:34.097Z,6.70
2023-01-09T05:39:02.831Z,6.70
2023-01-09T05:41:29.666Z,6.70
2023-01-09T05:43:56.635Z,6.70
2023-01-09T05:46:23.547Z,6.70
2023-01-09T05:48:50.345Z,6.70
2023-01-09T05:51:17.398Z,6.70
2023-01-09T05:53:44.286Z,6.70
2023-01-09T05:56:11.895Z,6.70
2023-01-09T05:58:38.994Z,6.70
2023-01-09T06:01:06.354Z,6.70
2023-01-09T06:03:33.809Z,6.70
2023-01-09T06:06:00.784Z,6.80
2023-01-09T06:08:27.739Z,6.80
2023-01-09T06:10:54.583Z,6.80
2023-01-09T06:13:21.477Z,6.80
2023-01-09T06:15:48.901Z,6.80
2023-01-09T06:18:16.088Z,6.80
2023-01-09T06:20:44.996Z,6.80
2023-01-09T06:23:13.481Z,6.80
2023-01-09T06:25:41.149Z,6.80
2023-01-09T06:28:08.065Z,6.80
2023-01-09T06:30:35.216Z,6.80
2023-01-09T06:33:02.063Z,6.80
2023-01-09T06:35:29.044Z,6.80
2023-01-09T06:37:56.027Z,6.80
2023-01-09T06:40:22.952Z,6.80
2023-01-09T06:42:50.229Z,6.80
2023-01-09T06:45:17.105Z,6.80
2023-01-09T06:47:44.111Z,6.90
2023-01-09T06:50:11.411Z,6.90
2023-01-09T06:52:38.803Z,6.90
2023-01-09T06:55:06.233Z,6.90
2023-01-09T06:57:33.061Z,6.80
2023-01-09T06:59:59.956Z,6.80
2023-01-09T07:02:26.871Z,6.80
2023-01-09T07:04:53.897Z,6.80
2023-01-09T07:07:22.517Z,6.80
2023-01-09T07:09:49.879Z,6.80
2023-01-09T07:12:16.896Z,6.80
2023-01-09T07:14:43.901Z,6.80
2023-01-09T07:17:13.806Z,6.70
2023-01-09T07:19:41.127Z,6.70
2023-01-09T07:22:08.180Z,6.70
2023-01-09T07:24:35.162Z,6.70
2023-01-09T07:27:02.369Z,6.70
2023-01-09T07:29:29.399Z,6.70
2023-01-09T07:31:56.484Z,6.70
2023-01-09T07:34:23.393Z,6.70
2023-01-09T07:36:51.361Z,6.70
2023-01-09T07:39:18.418Z,6.70
2023-01-09T07:41:45.458Z,6.80
2023-01-09T07:44:12.606Z,6.80
2023-01-09T07:46:39.805Z,6.80
2023-01-09T07:49:07.175Z,6.80
2023-01-09T07:51:34.093Z,6.80
2023-01-09T07:54:00.908Z,6.70
2023-01-09T07:56:27.787Z,6.70
2023-01-09T07:58:54.654Z,6.70
2023-01-09T08:01:21.816Z,6.70
2023-01-09T08:03:48.814Z,6.60
2023-01-09T08:06:15.764Z,6.70
2023-01-09T08:08:43.293Z,6.70
2023-01-09T08:11:10.552Z,6.70
2023-01-09T08:13:37.340Z,6.70
2023-01-09T08:16:04.443Z,6.70
2023-01-09T08:18:31.367Z,6.70
2023-01-09T08:20:58.249Z,6.70
2023-01-09T08:23:25.516Z,6.70
2023-01-09T08:25:53.158Z,6.70
2023-01-09T08:28:19.988Z,6.70
2023-01-09T08:30:47.738Z,6.70
2023-01-09T08:33:14.931Z,6.60
2023-01-09T08:35:43.165Z,6.60
2023-01-09T08:38:10.781Z,6.60
2023-01-09T08:40:37.937Z,6.60
2023-01-09T08:43:23.071Z,6.70
2023-01-09T08:46:21.808Z,6.70
2023-01-09T08:48:48.693Z,6.80
2023-01-09T08:51:15.674Z,6.80
2023-01-09T08:53:42.665Z,6.90
2023-01-09T08:56:10.507Z,6.90
2023-01-09T08:58:37.445Z,6.90
2023-01-09T09:01:07.903Z,7.00
2023-01-09T09:03:34.932Z,7.10
2023-01-09T09:06:03.931Z,7.10
2023-01-09T09:08:30.781Z,7.20
2023-01-09T09:10:57.858Z,7.20
2023-01-09T09:13:24.709Z,7.30
2023-01-09T09:15:51.693Z,7.40
2023-01-09T09:18:18.612Z,7.40
2023-01-09T09:20:45.532Z,7.40
2023-01-09T09:23:12.418Z,7.40
2023-01-09T09:25:39.863Z,7.40
2023-01-09T09:28:06.876Z,7.40
2023-01-09T09:30:33.804Z,7.40
2023-01-09T09:33:02.677Z,7.50
2023-01-09T09:35:31.224Z,7.50
2023-01-09T09:37:59.547Z,7.50
2023-01-09T09:40:29.209Z,7.50
2023-01-09T09:43:26.934Z,7.50
2023-01-09T09:45:59.683Z,7.50
2023-01-09T09:48:32.549Z,7.60
2023-01-09T09:51:14.553Z,7.60
2023-01-09T09:53:41.455Z,7.60
2023-01-09T09:56:12.058Z,7.60
2023-01-09T09:58:41.004Z,7.60
2023-01-09T10:01:08.997Z,7.70
2023-01-09T10:03:38.854Z,7.70
2023-01-09T10:06:26.136Z,7.70
2023-01-09T10:09:03.041Z,7.80
2023-01-09T10:11:35.708Z,7.80
2023-01-09T10:14:06.337Z,7.80
2023-01-09T10:16:51.923Z,7.90
2023-01-09T10:19:27.498Z,7.90
2023-01-09T10:22:12.972Z,7.90
2023-01-09T10:24:51.564Z,7.90
2023-01-09T10:27:37.598Z,7.90
2023-01-09T10:30:13.608Z,7.90
2023-01-09T10:32:46.871Z,7.90
2023-01-09T10:35:27.430Z,8.00
2023-01-09T10:37:59.146Z,8.00
2023-01-09T10:40:28.268Z,8.00
2023-01-09T10:43:00.104Z,8.00
2023-01-09T10:45:30.659Z,8.10
2023-01-09T10:48:01.967Z,8.00
2023-01-09T10:50:32.561Z,8.00
2023-01-09T10:53:00.606Z,8.00
2023-01-09T10:55:33.199Z,8.00
2023-01-09T10:58:02.592Z,8.00
2023-01-09T11:00:29.516Z,8.00
2023-01-09T11:02:56.503Z,8.00
2023-01-09T11:05:29.194Z,8.00
2023-01-09T11:08:09.375Z,8.00
2023-01-09T11:10:52.879Z,8.10
2023-01-09T11:13:21.798Z,8.10
2023-01-09T11:16:05.308Z,8.10
2023-01-09T11:18:33.257Z,8.10
2023-01-09T11:21:13.784Z,8.20
2023-01-09T11:23:40.791Z,8.20
2023-01-09T11:26:21.012Z,8.20
2023-01-09T11:29:04.462Z,8.20
2023-01-09T11:31:31.403Z,8.20
2023-01-09T11:33:58.462Z,8.20
2023-01-09T11:36:27.369Z,8.20
2023-01-09T11:38:58.494Z,8.20
2023-01-09T11:41:27.367Z,8.20
2023-01-09T11:43:55.730Z,8.20
2023-01-09T11:46:31.620Z,8.20
2023-01-09T11:48:59.218Z,8.20
2023-01-09T11:51:30.714Z,8.20
2023-01-09T11:54:00.673Z,8.20
2023-01-09T11:56:27.691Z,8.20
2023-01-09T11:58:54.668Z,8.20
2023-01-09T12:01:36.594Z,8.20
2023-01-09T12:04:23.671Z,8.30
2023-01-09T12:06:58.782Z,8.30
2023-01-09T12:09:44.262Z,8.30
2023-01-09T12:12:18.305Z,8.40
2023-01-09T12:15:01.130Z,8.40
2023-01-09T12:17:46.469Z,8.40
2023-01-09T12:20:38.828Z,8.50
2023-01-09T12:23:20.821Z,8.50
2023-01-09T12:25:50.729Z,8.50
2023-01-09T12:28:17.479Z,8.50
2023-01-09T12:30:53.438Z,8.50
2023-01-09T12:33:38.694Z,8.50
2023-01-09T12:36:18.594Z,8.50
2023-01-09T12:38:53.365Z,8.50
2023-01-09T12:41:26.312Z,8.50
2023-01-09T12:44:02.339Z,8.50
2023-01-09T12:47:04.648Z,8.50
2023-01-09T12:49:44.369Z,8.50
2023-01-09T12:52:14.020Z,8.50
2023-01-09T12:54:49.455Z,8.50
2023-01-09T12:57:19.294Z,8.60
2023-01-09T12:59:52.755Z,8.60
2023-01-09T13:02:28.653Z,8.60
2023-01-09T13:04:58.027Z,8.60
2023-01-09T13:07:28.131Z,8.60
2023-01-09T13:10:21.267Z,8.60
2023-01-09T13:12:49.287Z,8.60
2023-01-09T13:15:34.930Z,8.60
2023-01-09T13:18:04.999Z,8.60
2023-01-09T13:20:31.818Z,8.50
2023-01-09T13:22:59.859Z,8.60
2023-01-09T13:25:29.798Z,8.50
2023-01-09T13:27:58.942Z,8.50
2023-01-09T13:30:43.987Z,8.50
2023-01-09T13:33:13.858Z,8.50
2023-01-09T13:35:51.512Z,8.50
2023-01-09T13:38:19.976Z,8.50
2023-01-09T13:40:46.884Z,8.50
2023-01-09T13:43:15.069Z,8.50
2023-01-09T13:45:42.077Z,8.50
2023-01-09T13:48:09.938Z,8.40
2023-01-09T13:50:40.272Z,8.40
2023-01-09T13:53:19.434Z,8.40
2023-01-09T13:55:58.972Z,8.40
2023-01-09T13:58:32.098Z,8.40
2023-01-09T14:01:00.601Z,8.40
2023-01-09T14:03:28.541Z,8.40
2023-01-09T14:05:55.415Z,8.40
2023-01-09T14:08:24.141Z,8.30
2023-01-09T14:10:52.540Z,8.40
2023-01-09T14:13:27.190Z,8.40
2023-01-09T14:16:03.508Z,8.30
2023-01-09T14:18:32.403Z,8.30
2023-01-09T14:21:17.837Z,8.30
2023-01-09T14:23:52.699Z,8.30
2023-01-09T14:26:25.384Z,8.30
2023-01-09T14:28:52.568Z,8.30
2023-01-09T14:31:32.632Z,8.30
2023-01-09T14:34:37.922Z,8.30
2023-01-09T14:37:04.966Z,8.30
2023-01-09T14:39:32.764Z,8.30
2023-01-09T14:42:09.352Z,8.30
2023-01-09T14:44:55.692Z,8.30
2023-01-09T14:47:31.322Z,8.30
2023-01-09T14:50:04.243Z,8.30
2023-01-09T14:52:45.435Z,8.30
2023-01-09T14:55:17.829Z,8.30
2023-01-09T14:57:44.735Z,8.30
2023-01-09T15:00:14.264Z,8.30
2023-01-09T15:02:42.010Z,8.30
2023-01-09T15:05:10.446Z,8.30
2023-01-09T15:07:44.625Z,8.30
2023-01-09T15:10:19.678Z,8.30
2023-01-09T15:12:48.374Z,8.30
2023-01-09T15:15:16.071Z,8.30
2023-01-09T15:17:45.657Z,8.20
2023-01-09T15:20:20.504Z,8.20
2023-01-09T15:22:52.816Z,8.20
2023-01-09T15:25:27.339Z,8.20
2023-01-09T15:27:58.472Z,8.20
2023-01-09T15:30:35.379Z,8.20
2023-01-09T15:33:04.468Z,8.20
2023-01-09T15:35:31.828Z,8.20
2023-01-09T15:37:58.910Z,8.20
2023-01-09T15:40:32.493Z,8.20
2023-01-09T15:43:00.088Z,8.20
2023-01-09T15:45:29.553Z,8.20
2023-01-09T15:48:13.928Z,8.20
2023-01-09T15:50:41.379Z,8.20
2023-01-09T15:53:19.189Z,8.20
2023-01-09T15:55:47.770Z,8.10
2023-01-09T15:58:25.541Z,8.10
2023-01-09T16:00:58.079Z,8.10
2023-01-09T16:03:25.551Z,8.10
2023-01-09T16:06:05.272Z,8.10
2023-01-09T16:08:34.520Z,8.20
2023-01-09T16:11:05.973Z,8.10
2023-01-09T16:13:35.210Z,8.10
2023-01-09T16:16:02.646Z,8.20
2023-01-09T16:18:30.792Z,8.20
2023-01-09T16:21:21.137Z,8.20
2023-01-09T16:23:59.001Z,8.20
2023-01-09T16:26:26.977Z,8.20
2023-01-09T16:28:54.330Z,8.10
2023-01-09T16:31:24.396Z,8.10
2023-01-09T16:33:56.734Z,8.10
2023-01-09T16:36:23.705Z,8.10
2023-01-09T16:38:50.556Z,8.10
2023-01-09T16:41:40.047Z,8.10
2023-01-09T16:44:09.831Z,8.10
2023-01-09T16:46:41.864Z,8.00
2023-01-09T16:49:23.562Z,8.10
2023-01-09T16:51:51.159Z,8.00
2023-01-09T16:54:18.085Z,8.00
2023-01-09T16:56:48.546Z,8.10
2023-01-09T16:59:20.626Z,8.10
2023-01-09T17:01:48.406Z,8.10
2023-01-09T17:04:17.534Z,8.10
2023-01-09T17:06:44.739Z,8.10
2023-01-09T17:09:12.498Z,8.10
2023-01-09T17:11:39.990Z,8.10
2023-01-09T17:14:07.438Z,8.10
2023-01-09T17:16:36.159Z,8.10
2023-01-09T17:19:03.670Z,8.00
2023-01-09T17:21:31.074Z,8.00
2023-01-09T17:24:17.183Z,8.00
2023-01-09T17:27:04.014Z,8.00
2023-01-09T17:29:31.110Z,8.00
2023-01-09T17:31:58.181Z,8.00
2023-01-09T17:34:25.235Z,7.90
2023-01-09T17:36:53.006Z,7.90
2023-01-09T17:39:19.870Z,7.90
2023-01-09T17:41:46.775Z,7.90
2023-01-09T17:44:13.690Z,7.80
2023-01-09T17:46:42.008Z,7.80
2023-01-09T17:49:19.771Z,7.80
2023-01-09T17:51:46.977Z,7.80
2023-01-09T17:54:13.911Z,7.80
2023-01-09T17:56:43.627Z,7.70
2023-01-09T17:59:14.096Z,7.80
2023-01-09T18:01:42.153Z,7.70
2023-01-09T18:04:09.272Z,7.70
2023-01-09T18:06:39.010Z,7.70
2023-01-09T18:09:06.441Z,7.70
2023-01-09T18:11:33.302Z,7.70
2023-01-09T18:14:00.259Z,7.60
2023-01-09T18:16:28.151Z,7.60
2023-01-09T18:18:58.202Z,7.60
2023-01-09T18:21:26.629Z,7.60
2023-01-09T18:23:54.071Z,7.60
2023-01-09T18:26:21.631Z,7.60
2023-01-09T18:28:54.577Z,7.60
2023-01-09T18:31:23.977Z,7.60
2023-01-09T18:33:52.418Z,7.60
2023-01-09T18:36:23.952Z,7.60
2023-01-09T18:38:51.964Z,7.60
2023-01-09T18:41:19.322Z,7.60
2023-01-09T18:43:53.377Z,7.60
2023-01-09T18:46:24.272Z,7.50
2023-01-09T18:48:52.189Z,7.50
2023-01-09T18:51:19.109Z,7.40
2023-01-09T18:53:46.112Z,7.40
2023-01-09T18:56:13.081Z,7.40
2023-01-09T18:58:40.051Z,7.40
2023-01-09T19:01:07.086Z,7.40
2023-01-09T19:03:34.217Z,7.40
2023-01-09T19:06:02.326Z,7.40
2023-01-09T19:08:30.421Z,7.40
2023-01-09T19:10:57.621Z,7.40
2023-01-09T19:13:24.757Z,7.30
2023-01-09T19:15:57.919Z,7.30
2023-01-09T19:18:25.099Z,7.30
2023-01-09T19:20:53.088Z,7.30
2023-01-09T19:23:21.015Z,7.30
2023-01-09T19:25:48.085Z,7.30
2023-01-09T19:28:14.957Z,7.30
2023-01-09T19:30:42.069Z,7.30
2023-01-09T19:33:10.491Z,7.30
2023-01-09T19:35:37.679Z,7.30
2023-01-09T19:38:04.702Z,7.30
2023-01-09T19:40:31.883Z,7.30
2023-01-09T19:42:58.922Z,7.30
2023-01-09T19:45:25.893Z,7.30
2023-01-09T19:47:52.883Z,7.30
2023-01-09T19:50:19.904Z,7.40
2023-01-09T19:52:46.775Z,7.40
2023-01-09T19:55:14.133Z,7.40
2023-01-09T19:57:42.876Z,7.40
2023-01-09T20:00:16.461Z,7.40
2023-01-09T20:02:44.054Z,7.50
2023-01-09T20:05:11.088Z,7.50
2023-01-09T20:07:37.921Z,7.50
2023-01-09T20:10:05.096Z,7.50
2023-01-09T20:12:32.499Z,7.50
2023-01-09T20:14:59.368Z,7.50
2023-01-09T20:17:26.311Z,7.50
2023-01-09T20:19:54.450Z,7.50
2023-01-09T20:22:21.830Z,7.40
2023-01-09T20:24:48.649Z,7.50
2023-01-09T20:27:15.824Z,7.50
2023-01-09T20:29:42.722Z,7.50
2023-01-09T20:32:10.421Z,7.50
2023-01-09T20:34:37.512Z,7.50
2023-01-09T20:37:04.512Z,7.50
2023-01-09T20:39:31.382Z,7.60
2023-01-09T20:41:58.343Z,7.60
2023-01-09T20:44:25.406Z,7.60
2023-01-09T20:46:53.747Z,7.60
2023-01-09T20:49:20.638Z,7.70
2023-01-09T20:51:52.103Z,7.70
2023-01-09T20:54:21.465Z,7.70
2023-01-09T20:56:48.410Z,7.70
2023-01-09T20:59:20.993Z,7.70
2023-01-09T21:01:47.968Z,7.80
2023-01-09T21:04:15.107Z,7.80
2023-01-09T21:06:42.886Z,7.80
2023-01-09T21:09:09.764Z,7.80
2023-01-09T21:11:36.735Z,7.80
2023-01-09T21:14:03.574Z,7.80
2023-01-09T21:16:30.537Z,7.80
2023-01-09T21:18:57.556Z,7.90
2023-01-09T21:21:27.425Z,7.90
2023-01-09T21:23:56.327Z,7.90
2023-01-09T21:26:24.961Z,7.90
2023-01-09T21:28:55.192Z,7.90
2023-01-09T21:31:33.694Z,7.90
2023-01-09T21:34:01.770Z,7.80
2023-01-09T21:36:28.638Z,7.80
2023-01-09T21:38:57.450Z,7.80
2023-01-09T21:41:42.601Z,7.80
2023-01-09T21:44:31.184Z,7.80
2023-01-09T21:46:59.999Z,7.80
2023-01-09T21:49:28.886Z,7.80
2023-01-09T21:51:55.946Z,7.80
2023-01-09T21:54:23.490Z,7.80
2023-01-09T21:56:51.108Z,7.80
2023-01-09T21:59:18.339Z,7.80
2023-01-09T22:01:45.296Z,7.80
2023-01-09T22:04:14.034Z,7.80
2023-01-09T22:06:41.013Z,7.80
2023-01-09T22:09:07.946Z,7.80
2023-01-09T22:11:34.868Z,7.80
2023-01-09T22:14:01.958Z,7.80
2023-01-09T22:16:28.996Z,7.80
2023-01-09T22:18:56.493Z,7.80
2023-01-09T22:21:24.005Z,7.80
2023-01-09T22:23:51.157Z,7.80
2023-01-09T22:26:18.691Z,7.80
2023-01-09T22:28:45.990Z,7.80
2023-01-09T22:31:17.861Z,7.80
2023-01-09T22:33:49.223Z,7.80
2023-01-09T22:36:16.222Z,7.80
2023-01-09T22:38:43.126Z,7.80
2023-01-09T22:41:10.187Z,7.80
2023-01-09T22:43:37.125Z,7.70
2023-01-09T22:46:05.369Z,7.70
2023-01-09T22:48:33.005Z,7.70
2023-01-09T22:51:20.076Z,7.60
2023-01-09T22:53:47.258Z,7.60
2023-01-09T22:56:15.498Z,7.60
2023-01-09T22:58:42.415Z,7.60
2023-01-09T23:01:12.706Z,7.60
2023-01-09T23:03:40.081Z,7.60
2023-01-09T23:06:09.522Z,7.60
2023-01-09T23:08:36.561Z,7.60
2023-01-09T23:11:04.886Z,7.60
2023-01-09T23:13:31.927Z,7.60
2023-01-09T23:15:58.850Z,7.60
2023-01-09T23:18:25.815Z,7.60
2023-01-09T23:20:53.825Z,7.60
2023-01-09T23:23:21.166Z,7.60
2023-01-09T23:25:51.677Z,7.60
2023-01-09T23:28:19.028Z,7.60
2023-01-09T23:30:46.437Z,7.60
2023-01-09T23:33:13.322Z,7.60
2023-01-09T23:35:40.465Z,7.60
2023-01-09T23:38:07.586Z,7.60
2023-01-09T23:40:38.261Z,7.60
2023-01-09T23:43:11.177Z,7.60
2023-01-09T23:45:44.970Z,7.60
2023-01-09T23:48:15.700Z,7.50
2023-01-09T23:50:44.059Z,7.50
2023-01-09T23:53:10.965Z,7.50
2023-01-09T23:55:37.854Z,7.50
2023-01-09T23:58:04.831Z,7.50
